Time;durP1;ratioP1;P1;durP2;ratioP2;P2;SDS_P1;SDS_P2;PMS_P1;PMS_P2;Temp;Humidity;BMP_temperature;BMP_pressure;BME280_temperature;BME280_humidity;BME280_pressure;Samples;Min_cycle;Max_cycle;Signal;HPM_P1;HPM_P2
2024/02/13 00:02:20;;;;;;;3.97;1.25;;;2.80;99.90;;;;;;5052852;28;20671;-63
2024/02/13 00:04:46;;;;;;;2.50;1.27;;;2.90;99.90;;;;;;5052777;28;20235;-62
2024/02/13 00:07:13;;;;;;;1.27;1.15;;;2.90;99.90;;;;;;5052430;28;20932;-63
2024/02/13 00:09:38;;;;;;;3.25;1.20;;;3.00;99.90;;;;;;5052787;28;20733;-63
2024/02/13 00:12:04;;;;;;;2.97;1.33;;;3.10;99.90;;;;;;5052641;28;20198;-63
2024/02/13 00:14:30;;;;;;;0.93;0.73;;;3.10;99.90;;;;;;5052556;28;20455;-62
2024/02/13 00:16:56;;;;;;;2.63;0.87;;;3.20;99.90;;;;;;5052390;28;20623;-63
2024/02/13 00:19:24;;;;;;;5.47;1.20;;;3.30;99.90;;;;;;5033776;28;20170;-62
2024/02/13 00:21:49;;;;;;;3.10;1.58;;;3.20;99.90;;;;;;5052335;28;20277;-62
2024/02/13 00:24:16;;;;;;;1.67;1.50;;;3.30;99.90;;;;;;5052441;28;20213;-63
2024/02/13 00:26:43;;;;;;;1.58;1.10;;;3.20;99.90;;;;;;5052059;28;20178;-63
2024/02/13 00:29:09;;;;;;;1.15;1.05;;;3.20;99.90;;;;;;5052354;28;20179;-63
2024/02/13 00:31:36;;;;;;;1.40;1.30;;;3.10;99.90;;;;;;5052226;28;20216;-63
2024/02/13 00:34:02;;;;;;;1.50;1.33;;;3.10;99.90;;;;;;5052236;28;20710;-63
2024/02/13 00:36:28;;;;;;;2.23;0.90;;;3.10;99.90;;;;;;5051834;28;20277;-63
2024/02/13 00:38:53;;;;;;;2.27;1.57;;;3.20;99.90;;;;;;5052182;28;20247;-62
2024/02/13 00:41:19;;;;;;;1.70;1.03;;;3.30;99.90;;;;;;5052173;28;20220;-63
2024/02/13 00:43:44;;;;;;;1.80;1.70;;;3.20;99.90;;;;;;5052291;28;20260;-63
2024/02/13 00:46:10;;;;;;;2.63;2.43;;;3.20;99.90;;;;;;5052065;28;20181;-63
2024/02/13 00:48:36;;;;;;;3.47;1.70;;;3.20;99.90;;;;;;5051815;28;20203;-63
2024/02/13 00:51:03;;;;;;;1.63;1.53;;;3.20;99.90;;;;;;5051754;28;20694;-63
2024/02/13 00:53:29;;;;;;;3.83;1.00;;;3.10;99.90;;;;;;5051686;28;20180;-62
2024/02/13 00:55:54;;;;;;;2.33;1.20;;;3.20;99.90;;;;;;5051891;28;20573;-63
2024/02/13 00:58:20;;;;;;;3.00;1.20;;;3.30;99.90;;;;;;5053049;28;20586;-63
2024/02/13 01:00:46;;;;;;;1.23;1.07;;;3.20;99.90;;;;;;5051815;28;20620;-62
2024/02/13 01:03:11;;;;;;;0.80;0.73;;;3.20;99.90;;;;;;5051625;28;20190;-62
2024/02/13 01:05:40;;;;;;;1.40;1.07;;;3.20;99.90;;;;;;5051696;28;20599;-63
2024/02/13 01:08:07;;;;;;;2.67;1.27;;;3.20;99.90;;;;;;5051464;28;20173;-63
2024/02/13 01:10:33;;;;;;;2.55;2.35;;;3.20;99.90;;;;;;5051468;28;20261;-63
2024/02/13 01:12:59;;;;;;;2.20;2.00;;;3.20;99.90;;;;;;5051477;28;20359;-63
2024/02/13 01:15:26;;;;;;;2.88;1.13;;;3.20;99.90;;;;;;5051483;28;20455;-62
2024/02/13 01:17:53;;;;;;;1.40;1.27;;;3.20;99.90;;;;;;5033631;28;20166;-62
2024/02/13 01:20:19;;;;;;;1.40;0.95;;;3.30;99.90;;;;;;5051540;28;20546;-62
2024/02/13 01:22:46;;;;;;;2.03;1.17;;;3.40;99.90;;;;;;5051516;28;20242;-62
2024/02/13 01:25:14;;;;;;;1.50;1.40;;;3.50;99.90;;;;;;5051373;28;20247;-62
2024/02/13 01:27:40;;;;;;;2.03;1.35;;;3.50;99.90;;;;;;5051085;28;20286;-62
2024/02/13 01:30:09;;;;;;;2.70;1.40;;;3.60;99.90;;;;;;5051241;28;20178;-62
2024/02/13 01:32:40;;;;;;;2.00;1.08;;;3.60;99.90;;;;;;5051044;28;20663;-62
2024/02/13 01:35:06;;;;;;;1.02;0.90;;;3.70;99.90;;;;;;5051292;28;20210;-62
2024/02/13 01:37:32;;;;;;;1.98;1.02;;;3.70;99.90;;;;;;5050720;28;20174;-62
2024/02/13 01:39:59;;;;;;;1.10;1.00;;;3.70;99.90;;;;;;5051203;28;20228;-61
2024/02/13 01:42:25;;;;;;;3.17;1.10;;;3.60;99.90;;;;;;5051078;28;20747;-62
2024/02/13 01:44:53;;;;;;;1.27;1.17;;;3.60;99.90;;;;;;5051179;28;20212;-63
2024/02/13 01:47:22;;;;;;;1.40;1.30;;;3.70;99.90;;;;;;5050677;28;20196;-62
2024/02/13 01:49:48;;;;;;;2.42;1.30;;;3.70;99.90;;;;;;5051281;28;20174;-62
2024/02/13 01:52:17;;;;;;;2.45;1.08;;;3.80;99.90;;;;;;5051109;28;20557;-62
2024/02/13 01:54:45;;;;;;;2.55;1.40;;;3.80;99.90;;;;;;5051107;28;20274;-62
2024/02/13 01:57:11;;;;;;;0.68;0.68;;;3.80;99.90;;;;;;5050853;28;20178;-62
2024/02/13 01:59:38;;;;;;;1.30;1.20;;;3.80;99.90;;;;;;5051089;28;20721;-62
2024/02/13 02:02:08;;;;;;;3.10;1.02;;;3.70;99.90;;;;;;5050897;28;20206;-62
2024/02/13 02:04:37;;;;;;;1.20;1.05;;;3.80;99.90;;;;;;5033160;28;20239;-62
2024/02/13 02:07:03;;;;;;;0.93;0.93;;;3.80;99.90;;;;;;5050818;28;20178;-62
2024/02/13 02:09:30;;;;;;;1.58;1.15;;;3.90;99.90;;;;;;5051071;28;20209;-62
2024/02/13 02:11:57;;;;;;;3.03;1.20;;;4.00;99.90;;;;;;5050904;28;20595;-62
2024/02/13 02:14:23;;;;;;;1.30;1.13;;;3.90;99.90;;;;;;5050802;28;20175;-62
2024/02/13 02:16:50;;;;;;;1.13;1.13;;;3.80;99.90;;;;;;5050507;28;20167;-62
2024/02/13 02:19:16;;;;;;;1.92;1.33;;;3.90;99.90;;;;;;5051174;28;20247;-62
2024/02/13 02:21:43;;;;;;;5.00;1.92;;;3.90;99.90;;;;;;5052036;28;20565;-62
2024/02/13 02:24:08;;;;;;;3.92;1.80;;;3.90;99.90;;;;;;5032923;28;20204;-62
2024/02/13 02:26:34;;;;;;;3.83;2.57;;;3.90;99.90;;;;;;5050563;28;20170;-62
2024/02/13 02:29:00;;;;;;;1.75;1.58;;;3.90;99.90;;;;;;5050809;28;20396;-62
2024/02/13 02:31:26;;;;;;;2.60;1.37;;;3.90;99.90;;;;;;5050685;28;20281;-62
2024/02/13 02:33:53;;;;;;;1.60;1.30;;;3.90;99.90;;;;;;5050841;28;20539;-62
2024/02/13 02:36:19;;;;;;;1.60;1.40;;;3.80;99.90;;;;;;5050606;28;20382;-62
2024/02/13 02:38:45;;;;;;;3.20;1.20;;;3.80;99.90;;;;;;5050532;28;20166;-62
2024/02/13 02:41:10;;;;;;;2.23;2.03;;;3.90;99.90;;;;;;5050551;28;20167;-62
2024/02/13 02:43:41;;;;;;;1.70;0.90;;;3.90;99.90;;;;;;5053833;28;20651;-62
2024/02/13 02:46:06;;;;;;;2.45;1.33;;;3.80;99.90;;;;;;5054440;28;20185;-62
2024/02/13 02:48:33;;;;;;;2.93;2.33;;;3.90;99.90;;;;;;5053965;28;20643;-62
2024/02/13 02:50:59;;;;;;;0.88;0.88;;;3.90;99.90;;;;;;5054104;28;20420;-62
2024/02/13 02:53:24;;;;;;;1.33;1.13;;;3.90;99.90;;;;;;5054104;28;20189;-62
2024/02/13 02:55:50;;;;;;;3.23;1.40;;;3.80;99.90;;;;;;5053957;28;20474;-62
2024/02/13 02:58:16;;;;;;;1.63;1.50;;;3.90;99.90;;;;;;5053767;28;20462;-62
2024/02/13 03:00:43;;;;;;;2.37;1.47;;;3.90;99.90;;;;;;5054015;28;20654;-62
2024/02/13 03:03:09;;;;;;;5.60;1.25;;;3.90;99.90;;;;;;5054088;28;20210;-62
2024/02/13 03:05:35;;;;;;;2.47;1.63;;;3.80;99.90;;;;;;5054025;28;20566;-62
2024/02/13 03:08:00;;;;;;;1.90;1.80;;;3.80;99.90;;;;;;5053663;28;20180;-62
2024/02/13 03:10:26;;;;;;;1.07;1.07;;;3.80;99.90;;;;;;5053922;28;20224;-62
2024/02/13 03:12:52;;;;;;;1.50;1.03;;;3.90;99.90;;;;;;5053714;28;20972;-62
2024/02/13 03:15:18;;;;;;;1.40;0.93;;;3.80;99.90;;;;;;5053700;28;20241;-62
2024/02/13 03:17:44;;;;;;;1.35;1.20;;;3.90;99.90;;;;;;5053421;28;20170;-62
2024/02/13 03:20:10;;;;;;;2.38;1.00;;;3.80;99.90;;;;;;5053851;28;20173;-62
2024/02/13 03:22:37;;;;;;;1.00;0.90;;;3.70;99.90;;;;;;5053667;28;20190;-62
2024/02/13 03:25:05;;;;;;;1.65;1.10;;;3.70;99.90;;;;;;5053490;28;20405;-62
2024/02/13 03:27:31;;;;;;;9.02;1.88;;;3.80;99.90;;;;;;5053211;28;20181;-62
2024/02/13 03:29:57;;;;;;;4.20;2.30;;;3.90;99.90;;;;;;5053349;28;20170;-63
2024/02/13 03:32:22;;;;;;;2.40;1.93;;;3.90;99.90;;;;;;5053528;28;20218;-62
2024/02/13 03:34:48;;;;;;;2.17;1.67;;;3.90;99.90;;;;;;5053424;28;20199;-62
2024/02/13 03:37:14;;;;;;;1.30;1.20;;;4.00;99.90;;;;;;5053109;28;20174;-62
2024/02/13 03:39:42;;;;;;;3.63;1.60;;;4.10;99.90;;;;;;5053329;28;20542;-62
2024/02/13 03:42:09;;;;;;;2.75;1.70;;;4.10;99.90;;;;;;5085669;22;20229;-63
2024/02/13 03:44:37;;;;;;;1.77;1.67;;;4.10;99.90;;;;;;5089725;28;20555;-63
2024/02/13 03:47:05;;;;;;;7.40;1.23;;;4.20;99.90;;;;;;5074906;28;20197;-63
2024/02/13 03:49:31;;;;;;;2.50;1.38;;;4.20;99.90;;;;;;5093456;28;20493;-63
2024/02/13 03:51:59;;;;;;;1.17;1.08;;;4.20;99.90;;;;;;5093207;28;20529;-62
2024/02/13 03:54:24;;;;;;;1.40;1.30;;;4.20;99.90;;;;;;5093036;28;20230;-63
2024/02/13 03:56:50;;;;;;;1.10;1.07;;;4.10;99.90;;;;;;5092949;28;20641;-63
2024/02/13 03:59:16;;;;;;;1.00;1.00;;;4.10;99.90;;;;;;5093202;28;20410;-63
2024/02/13 04:01:43;;;;;;;1.97;1.13;;;4.10;99.90;;;;;;5092958;28;20646;-63
2024/02/13 04:04:08;;;;;;;2.17;1.40;;;4.20;99.90;;;;;;5093057;28;20165;-63
2024/02/13 04:06:35;;;;;;;1.20;1.00;;;4.20;99.90;;;;;;5092757;28;20177;-63
2024/02/13 04:09:07;;;;;;;1.23;1.13;;;4.20;99.90;;;;;;5092844;28;20187;-63
2024/02/13 04:11:33;;;;;;;1.10;1.10;;;4.30;99.90;;;;;;5093057;28;20184;-63
2024/02/13 04:13:59;;;;;;;1.95;1.83;;;4.30;99.90;;;;;;5092835;28;20252;-63
2024/02/13 04:16:25;;;;;;;2.20;1.23;;;4.30;99.90;;;;;;5092540;28;20799;-62
2024/02/13 04:18:53;;;;;;;1.10;1.10;;;4.30;99.90;;;;;;5092838;28;20559;-62
2024/02/13 04:21:18;;;;;;;3.25;1.42;;;4.20;99.90;;;;;;5092632;28;20189;-63
2024/02/13 04:23:45;;;;;;;6.43;1.70;;;4.30;99.90;;;;;;5092540;28;20188;-62
2024/02/13 04:26:11;;;;;;;1.75;1.65;;;4.30;99.90;;;;;;5092813;28;20411;-63
2024/02/13 04:28:39;;;;;;;2.20;1.60;;;4.40;99.90;;;;;;5092406;28;20223;-63
2024/02/13 04:31:05;;;;;;;1.10;0.95;;;4.40;99.90;;;;;;5092503;28;20607;-63
2024/02/13 04:33:31;;;;;;;2.15;1.75;;;4.40;99.90;;;;;;5092440;28;20275;-63
2024/02/13 04:35:57;;;;;;;1.50;1.40;;;4.40;99.90;;;;;;5092334;28;20279;-63
2024/02/13 04:38:23;;;;;;;2.73;1.67;;;4.50;99.90;;;;;;5092109;28;20192;-62
2024/02/13 04:40:49;;;;;;;5.93;1.95;;;4.50;99.90;;;;;;5092290;28;20661;-63
2024/02/13 04:43:14;;;;;;;1.65;1.40;;;4.60;99.90;;;;;;5092176;28;20240;-63
2024/02/13 04:45:40;;;;;;;1.60;1.50;;;4.60;99.90;;;;;;5084085;28;20170;-62
2024/02/13 04:48:07;;;;;;;4.10;1.80;;;4.60;99.90;;;;;;5071795;28;20171;-63
2024/02/13 04:50:33;;;;;;;3.08;1.80;;;4.50;99.90;;;;;;5072005;28;20178;-63
2024/02/13 04:52:58;;;;;;;3.17;1.47;;;4.50;99.90;;;;;;5071814;28;20206;-62
2024/02/13 04:55:24;;;;;;;3.57;1.57;;;4.60;99.90;;;;;;5071796;28;20701;-62
2024/02/13 04:57:51;;;;;;;2.90;1.80;;;4.70;99.90;;;;;;5071797;28;20597;-63
2024/02/13 05:00:24;;;;;;;2.20;2.00;;;4.70;99.90;;;;;;5053521;28;20558;-63
2024/02/13 05:03:17;;;;;;;3.92;1.30;;;4.70;99.90;;;;;;5071691;28;20295;-63
2024/02/13 05:08:30;;;;;;;2.08;1.98;;;4.80;99.90;;;;;;5071671;28;20190;-63
2024/02/13 05:10:56;;;;;;;2.78;1.90;;;4.80;99.90;;;;;;5071632;28;20579;-63
2024/02/13 05:13:23;;;;;;;3.87;1.60;;;4.80;99.90;;;;;;5071555;28;20287;-63
2024/02/13 05:15:50;;;;;;;2.33;2.17;;;4.80;99.90;;;;;;5071327;28;20450;-63
2024/02/13 05:18:17;;;;;;;2.63;2.05;;;4.80;99.90;;;;;;5071434;28;20178;-63
2024/02/13 05:20:43;;;;;;;4.13;1.67;;;4.80;99.90;;;;;;5071417;28;20294;-63
2024/02/13 05:23:10;;;;;;;8.30;3.10;;;4.80;99.90;;;;;;5071443;28;20275;-63
2024/02/13 05:25:39;;;;;;;2.65;1.75;;;4.90;99.90;;;;;;5070891;28;20189;-63
2024/02/13 05:28:04;;;;;;;5.72;1.60;;;4.90;99.90;;;;;;5071166;28;20891;-63
2024/02/13 05:30:30;;;;;;;4.03;2.00;;;4.90;99.90;;;;;;5071393;28;20256;-63
2024/02/13 05:32:56;;;;;;;2.97;2.10;;;4.90;99.90;;;;;;5071230;28;20960;-63
2024/02/13 05:35:22;;;;;;;3.60;2.47;;;4.90;99.90;;;;;;5071155;28;20459;-63
2024/02/13 05:37:51;;;;;;;4.70;1.65;;;4.90;99.90;;;;;;5071116;28;20606;-63
2024/02/13 05:40:17;;;;;;;13.07;2.00;;;4.90;99.90;;;;;;5071356;28;20709;-63
2024/02/13 05:42:44;;;;;;;3.53;3.23;;;5.00;99.90;;;;;;5071061;28;20208;-63
2024/02/13 05:45:10;;;;;;;4.63;2.85;;;4.90;99.90;;;;;;5066092;28;20477;-62
2024/02/13 05:47:37;;;;;;;3.35;3.08;;;4.90;99.90;;;;;;5071283;28;20188;-64
2024/02/13 05:50:06;;;;;;;4.22;2.88;;;4.90;99.90;;;;;;5071292;28;20216;-63
2024/02/13 05:52:33;;;;;;;5.13;3.17;;;4.90;99.90;;;;;;5053410;28;20682;-62
2024/02/13 05:54:58;;;;;;;3.67;3.30;;;5.00;99.90;;;;;;5070858;28;20197;-64
2024/02/13 05:57:25;;;;;;;6.17;5.60;;;5.00;99.90;;;;;;5095463;28;20181;-64
2024/02/13 05:59:51;;;;;;;5.05;3.67;;;5.00;99.90;;;;;;5091244;28;20631;-64
2024/02/13 06:02:17;;;;;;;9.07;2.75;;;5.00;99.90;;;;;;5091201;28;20197;-64
2024/02/13 06:04:44;;;;;;;4.97;4.18;;;5.00;99.90;;;;;;5091209;28;20291;-64
2024/02/13 06:07:09;;;;;;;4.00;3.15;;;5.00;99.90;;;;;;5091036;28;20672;-64
2024/02/13 06:09:35;;;;;;;3.50;2.80;;;5.00;99.90;;;;;;5091434;28;20173;-63
2024/02/13 06:12:01;;;;;;;4.17;2.40;;;5.00;99.90;;;;;;5090751;28;20266;-63
2024/02/13 06:14:27;;;;;;;6.03;2.92;;;5.10;99.90;;;;;;5091142;28;20256;-63
2024/02/13 06:16:53;;;;;;;3.30;2.90;;;5.20;99.90;;;;;;5091382;28;20233;-63
2024/02/13 06:19:18;;;;;;;4.00;3.40;;;5.10;99.90;;;;;;5095138;28;20172;-64
2024/02/13 06:21:44;;;;;;;5.90;4.10;;;5.10;99.90;;;;;;5095054;28;20259;-63
2024/02/13 06:24:10;;;;;;;5.10;4.70;;;5.00;99.90;;;;;;5095038;28;20903;-62
2024/02/13 06:26:37;;;;;;;6.60;3.50;;;4.90;99.90;;;;;;5094613;28;20169;-62
2024/02/13 06:29:03;;;;;;;7.35;5.10;;;4.90;99.90;;;;;;5094899;28;20194;-63
2024/02/13 06:31:34;;;;;;;3.53;3.03;;;4.90;99.90;;;;;;5094907;28;20207;-63
2024/02/13 06:34:00;;;;;;;9.65;3.72;;;4.90;99.90;;;;;;5094849;28;20399;-63
2024/02/13 06:36:26;;;;;;;6.57;4.20;;;5.00;99.90;;;;;;5094470;28;20205;-62
2024/02/13 06:38:54;;;;;;;10.40;2.72;;;5.00;99.90;;;;;;5094698;28;20184;-62
2024/02/13 06:41:20;;;;;;;5.80;3.45;;;4.90;99.90;;;;;;5094597;28;20181;-62
2024/02/13 06:43:46;;;;;;;5.27;3.77;;;4.80;99.90;;;;;;5094479;28;20207;-62
2024/02/13 06:46:15;;;;;;;4.80;3.45;;;4.70;99.90;;;;;;5094508;28;20215;-63
2024/02/13 06:48:41;;;;;;;3.78;3.15;;;4.60;99.90;;;;;;5094430;28;20181;-63
2024/02/13 06:51:11;;;;;;;6.33;3.97;;;4.60;99.90;;;;;;5094796;28;20611;-62
2024/02/13 06:53:36;;;;;;;6.93;4.25;;;4.70;99.90;;;;;;5094332;28;20958;-63
2024/02/13 06:56:02;;;;;;;8.90;4.00;;;4.70;99.90;;;;;;5070445;28;20248;-62
2024/02/13 06:58:28;;;;;;;6.67;4.57;;;4.80;99.90;;;;;;5073944;28;20174;-62
2024/02/13 07:00:53;;;;;;;3.87;3.57;;;4.80;99.90;;;;;;5074214;28;20188;-62
2024/02/13 07:03:19;;;;;;;5.40;3.90;;;4.80;99.90;;;;;;5073994;28;20283;-62
2024/02/13 07:05:45;;;;;;;8.83;3.93;;;4.80;99.90;;;;;;5074000;28;20529;-63
2024/02/13 07:08:10;;;;;;;8.43;4.90;;;4.90;99.90;;;;;;5073612;28;20182;-63
2024/02/13 07:10:36;;;;;;;8.70;4.20;;;4.90;99.90;;;;;;5074030;28;20703;-62
2024/02/13 07:13:02;;;;;;;6.97;3.77;;;5.00;99.90;;;;;;5073967;28;20693;-63
2024/02/13 07:15:28;;;;;;;4.53;3.67;;;5.00;99.90;;;;;;5087919;28;20462;-62
2024/02/13 07:17:54;;;;;;;4.95;3.22;;;5.00;99.90;;;;;;5093510;28;20607;-63
2024/02/13 07:20:19;;;;;;;9.63;3.73;;;5.10;99.90;;;;;;5093945;28;20260;-62
2024/02/13 07:22:45;;;;;;;3.13;2.93;;;5.20;99.90;;;;;;5093601;28;20196;-62
2024/02/13 07:25:11;;;;;;;4.35;3.72;;;5.30;99.90;;;;;;5093859;28;20642;-62
2024/02/13 07:27:37;;;;;;;4.20;3.47;;;5.40;99.90;;;;;;5093168;28;20188;-63
2024/02/13 07:30:07;;;;;;;3.53;2.78;;;5.40;99.90;;;;;;5093789;28;20188;-63
2024/02/13 07:32:33;;;;;;;9.30;4.03;;;5.50;99.90;;;;;;5093366;28;20192;-65
2024/02/13 07:35:03;;;;;;;4.85;3.92;;;5.60;99.90;;;;;;5093582;28;20204;-63
2024/02/13 07:37:29;;;;;;;3.65;2.55;;;5.60;99.90;;;;;;5093158;28;20260;-64
2024/02/13 07:39:54;;;;;;;3.80;2.73;;;5.60;99.90;;;;;;5093539;28;20192;-63
2024/02/13 07:42:21;;;;;;;3.50;2.97;;;5.50;99.90;;;;;;5093520;28;20207;-63
2024/02/13 07:44:47;;;;;;;2.90;2.70;;;5.40;99.90;;;;;;5093530;28;20411;-64
2024/02/13 07:47:13;;;;;;;3.90;3.10;;;5.30;99.90;;;;;;5093229;28;20170;-64
2024/02/13 07:49:39;;;;;;;2.72;2.50;;;5.30;99.90;;;;;;5093458;28;20650;-64
2024/02/13 07:52:05;;;;;;;3.80;3.43;;;5.60;99.90;;;;;;5093163;28;20224;-64
2024/02/13 07:54:31;;;;;;;3.40;3.10;;;6.80;99.90;;;;;;5093270;28;20220;-64
2024/02/13 07:56:58;;;;;;;3.77;3.40;;;8.30;99.90;;;;;;5093094;28;20403;-64
2024/02/13 07:59:24;;;;;;;3.47;3.07;;;10.00;98.60;;;;;;5093233;28;20402;-64
2024/02/13 08:01:49;;;;;;;1.77;1.67;;;11.60;95.60;;;;;;5092881;28;20399;-65
2024/02/13 08:04:15;;;;;;;4.20;2.63;;;13.00;92.80;;;;;;5092996;28;20403;-64
2024/02/13 08:06:41;;;;;;;2.00;1.63;;;14.40;88.10;;;;;;5092788;28;20177;-65
2024/02/13 08:09:08;;;;;;;1.47;1.23;;;15.30;84.10;;;;;;5093291;28;20218;-65
2024/02/13 08:11:35;;;;;;;2.10;1.73;;;16.00;81.20;;;;;;5092998;28;20465;-65
2024/02/13 08:14:00;;;;;;;2.47;1.60;;;16.70;76.20;;;;;;5093079;28;20541;-64
2024/02/13 08:16:29;;;;;;;1.40;1.30;;;17.60;71.50;;;;;;5092816;28;20533;-64
2024/02/13 08:18:55;;;;;;;4.40;2.87;;;18.30;66.10;;;;;;5092876;28;20187;-66
2024/02/13 08:21:22;;;;;;;1.67;1.37;;;19.00;62.60;;;;;;5092934;28;20438;-64
2024/02/13 08:23:47;;;;;;;1.93;1.20;;;19.30;58.80;;;;;;5092769;28;20397;-64
2024/02/13 08:26:13;;;;;;;2.47;1.90;;;20.00;58.30;;;;;;5092739;28;20425;-64
2024/02/13 08:28:42;;;;;;;7.13;3.50;;;20.40;55.50;;;;;;5092618;28;20173;-65
2024/02/13 08:31:08;;;;;;;4.60;3.23;;;21.00;53.30;;;;;;5092757;28;20185;-65
2024/02/13 08:33:33;;;;;;;2.73;2.40;;;21.50;51.60;;;;;;5092426;28;20592;-65
2024/02/13 08:35:59;;;;;;;1.33;1.23;;;21.90;51.10;;;;;;5092503;28;20454;-65
2024/02/13 08:38:24;;;;;;;1.47;0.80;;;22.30;48.90;;;;;;5092259;28;20372;-66
2024/02/13 08:40:50;;;;;;;2.10;1.40;;;22.70;48.80;;;;;;5091823;28;20263;-65
2024/02/13 08:43:16;;;;;;;2.47;1.13;;;23.00;47.90;;;;;;5092270;28;20209;-67
2024/02/13 08:45:41;;;;;;;1.40;1.20;;;23.10;45.90;;;;;;5092377;28;20177;-66
2024/02/13 08:48:07;;;;;;;2.30;0.83;;;23.30;46.10;;;;;;5092095;28;20216;-65
2024/02/13 08:50:33;;;;;;;5.50;1.37;;;23.60;46.00;;;;;;5092224;28;20218;-66
2024/02/13 08:52:59;;;;;;;2.17;2.00;;;23.70;45.10;;;;;;5091716;28;20208;-65
2024/02/13 08:55:25;;;;;;;2.33;1.10;;;23.20;44.80;;;;;;5092170;28;20537;-66
2024/02/13 08:57:51;;;;;;;1.90;1.40;;;22.60;44.90;;;;;;5091798;28;20234;-64
2024/02/13 09:00:18;;;;;;;2.60;1.70;;;21.90;45.10;;;;;;5092092;28;20410;-65
2024/02/13 09:02:46;;;;;;;2.20;1.60;;;21.20;45.50;;;;;;5091858;28;20509;-65
2024/02/13 09:05:12;;;;;;;4.03;1.70;;;20.30;46.20;;;;;;5092217;28;20433;-64
2024/02/13 09:07:38;;;;;;;2.27;1.00;;;19.60;47.40;;;;;;5091033;28;20419;-63
2024/02/13 09:10:05;;;;;;;3.97;1.43;;;19.40;47.90;;;;;;5072753;28;20416;-62
2024/02/13 09:12:33;;;;;;;2.40;1.53;;;19.50;48.20;;;;;;5071553;28;20428;-63
2024/02/13 09:14:59;;;;;;;0.90;0.80;;;19.20;48.90;;;;;;5071547;28;20542;-63
2024/02/13 09:17:26;;;;;;;1.37;0.90;;;18.60;49.50;;;;;;5071240;28;20868;-63
2024/02/13 09:19:51;;;;;;;1.90;1.20;;;18.50;49.60;;;;;;5071329;28;20417;-64
2024/02/13 09:22:17;;;;;;;1.23;0.90;;;18.20;50.70;;;;;;5071491;28;20800;-63
2024/02/13 09:24:50;;;;;;;1.93;1.07;;;18.60;50.40;;;;;;5071541;28;20542;-63
2024/02/13 09:27:18;;;;;;;0.80;0.60;;;18.60;50.00;;;;;;5071166;28;20256;-64
2024/02/13 09:29:44;;;;;;;1.00;0.60;;;19.30;50.00;;;;;;5071429;28;20383;-64
2024/02/13 09:32:10;;;;;;;4.90;1.40;;;19.70;49.70;;;;;;5071503;28;20517;-64
2024/02/13 09:34:36;;;;;;;1.07;1.00;;;20.20;48.00;;;;;;5070645;28;20888;-63
2024/02/13 09:37:02;;;;;;;1.17;0.80;;;20.70;47.80;;;;;;5071981;28;20256;-63
2024/02/13 09:39:28;;;;;;;1.10;0.90;;;21.10;46.40;;;;;;5071365;28;20227;-63
2024/02/13 09:41:55;;;;;;;1.43;1.00;;;21.70;45.70;;;;;;5071018;28;20459;-64
2024/02/13 09:44:23;;;;;;;0.90;0.90;;;22.50;45.40;;;;;;5114241;22;20243;-63
2024/02/13 09:46:51;;;;;;;1.93;0.90;;;23.00;43.00;;;;;;5101088;28;20395;-63
2024/02/13 09:49:17;;;;;;;1.70;1.03;;;22.80;43.50;;;;;;5091295;28;20925;-63
2024/02/13 09:51:48;;;;;;;1.00;0.90;;;22.90;42.00;;;;;;5075295;28;20441;-62
2024/02/13 09:54:15;;;;;;;0.80;0.70;;;23.30;42.10;;;;;;5083695;28;20802;-61
2024/02/13 09:56:41;;;;;;;2.60;0.73;;;23.40;41.20;;;;;;5074807;28;20478;-62
2024/02/13 09:59:07;;;;;;;1.70;0.50;;;23.40;41.80;;;;;;5075095;28;20456;-62
2024/02/13 10:01:33;;;;;;;1.80;0.73;;;23.40;42.40;;;;;;5075015;28;20412;-60
2024/02/13 10:03:59;;;;;;;1.83;0.90;;;23.00;40.90;;;;;;5076778;28;20199;-61
2024/02/13 10:06:27;;;;;;;0.60;0.60;;;22.20;41.10;;;;;;5095210;28;20820;-60
2024/02/13 10:08:53;;;;;;;0.80;0.70;;;21.40;42.50;;;;;;5095352;28;20398;-62
2024/02/13 10:11:29;;;;;;;4.60;1.50;;;19.80;41.80;;;;;;5095122;28;20822;-62
2024/02/13 10:13:55;;;;;;;0.90;0.60;;;17.70;44.60;;;;;;5095209;28;20432;-63
2024/02/13 10:16:23;;;;;;;0.60;0.53;;;16.50;45.40;;;;;;5094902;28;20797;-65
2024/02/13 10:19:02;;;;;;;2.10;1.00;;;15.20;48.40;;;;;;5095093;28;20619;-62
2024/02/13 10:21:29;;;;;;;1.30;1.20;;;14.20;49.40;;;;;;5109213;28;20438;-61
2024/02/13 10:24:06;;;;;;;2.03;0.80;;;14.00;52.00;;;;;;5114936;28;20419;-60
2024/02/13 10:26:32;;;;;;;1.00;0.60;;;15.40;50.50;;;;;;5115072;28;20425;-64
2024/02/13 10:28:58;;;;;;;1.57;1.07;;;16.40;48.20;;;;;;5096873;28;20424;-66
2024/02/13 10:31:25;;;;;;;1.57;1.07;;;16.90;46.90;;;;;;5115022;28;20402;-62
2024/02/13 10:33:51;;;;;;;1.10;0.80;;;17.30;48.40;;;;;;5115090;28;20221;-63
2024/02/13 10:36:17;;;;;;;0.97;0.57;;;17.60;47.60;;;;;;5115046;28;20491;-62
2024/02/13 10:38:48;;;;;;;1.00;0.80;;;17.20;43.50;;;;;;5116024;28;20414;-61
2024/02/13 10:41:21;;;;;;;0.93;0.83;;;16.80;44.20;;;;;;5114898;28;20167;-62
2024/02/13 10:43:55;;;;;;;3.07;1.87;;;16.20;46.30;;;;;;5114867;28;20556;-62
2024/02/13 10:46:23;;;;;;;1.57;0.60;;;16.60;48.10;;;;;;5115025;28;20918;-62
2024/02/13 10:49:14;;;;;;;0.70;0.60;;;17.30;46.60;;;;;;5114720;28;20409;-62
2024/02/13 10:51:41;;;;;;;0.93;0.67;;;18.20;47.10;;;;;;5114656;28;20406;-62
2024/02/13 10:54:09;;;;;;;1.73;1.27;;;18.10;43.80;;;;;;5114635;28;20478;-61
2024/02/13 10:56:37;;;;;;;2.03;1.10;;;18.00;42.70;;;;;;5104662;28;20468;-61
2024/02/13 10:59:03;;;;;;;3.03;0.80;;;17.70;42.60;;;;;;5109832;28;20502;-61
2024/02/13 11:01:34;;;;;;;2.40;0.70;;;17.30;44.50;;;;;;5079948;28;20491;-61
2024/02/13 11:04:02;;;;;;;1.27;0.90;;;17.00;46.50;;;;;;5076449;28;20275;-61
2024/02/13 11:06:28;;;;;;;1.77;1.00;;;16.70;47.10;;;;;;5093847;28;20399;-60
2024/02/13 11:08:56;;;;;;;1.80;1.07;;;16.60;48.50;;;;;;5094213;28;20893;-61
2024/02/13 11:11:24;;;;;;;4.27;1.30;;;16.50;47.80;;;;;;5094133;28;20418;-61
2024/02/13 11:13:52;;;;;;;3.63;1.07;;;16.40;48.40;;;;;;5108226;28;20501;-60
2024/02/13 11:16:22;;;;;;;1.50;0.70;;;15.60;48.90;;;;;;5114277;28;20450;-60
2024/02/13 11:18:49;;;;;;;3.10;1.03;;;14.40;49.40;;;;;;5114207;28;20401;-61
2024/02/13 11:21:24;;;;;;;1.87;1.13;;;14.20;51.50;;;;;;5114706;28;20417;-61
2024/02/13 11:23:59;;;;;;;2.07;0.70;;;14.30;51.10;;;;;;5114219;28;20435;-61
2024/02/13 11:26:36;;;;;;;0.87;0.63;;;14.30;50.20;;;;;;5114077;28;20400;-61
2024/02/13 11:29:23;;;;;;;0.83;0.80;;;14.00;51.00;;;;;;5114214;28;20459;-61
2024/02/13 11:31:57;;;;;;;1.03;0.80;;;13.80;52.80;;;;;;5073482;28;20415;-61
2024/02/13 11:34:41;;;;;;;2.53;1.20;;;13.40;52.40;;;;;;5073426;28;20421;-61
2024/02/13 11:37:20;;;;;;;1.83;1.10;;;13.50;53.80;;;;;;5073256;28;21001;-61
2024/02/13 11:39:47;;;;;;;1.00;0.93;;;13.40;52.10;;;;;;5073775;28;20404;-60
2024/02/13 11:42:18;;;;;;;0.87;0.80;;;13.20;51.90;;;;;;5073291;28;20429;-61
2024/02/13 11:44:44;;;;;;;1.10;1.03;;;12.80;51.80;;;;;;5073081;28;20431;-60
2024/02/13 11:47:10;;;;;;;3.20;0.70;;;12.50;53.00;;;;;;5072965;28;20399;-60
2024/02/13 11:49:36;;;;;;;2.50;1.30;;;12.10;54.30;;;;;;5073140;28;20445;-60
2024/02/13 11:52:05;;;;;;;1.90;1.00;;;11.60;55.80;;;;;;5073130;28;20407;-60
2024/02/13 11:54:32;;;;;;;1.47;1.00;;;11.40;57.10;;;;;;5072799;28;20298;-61
2024/02/13 11:56:59;;;;;;;6.27;1.10;;;11.60;56.30;;;;;;5072471;28;20937;-60
2024/02/13 11:59:25;;;;;;;1.60;1.03;;;11.70;55.90;;;;;;5073082;28;20487;-61
2024/02/13 12:01:52;;;;;;;1.27;1.00;;;12.00;56.80;;;;;;5072502;28;20404;-61
2024/02/13 12:04:19;;;;;;;4.00;1.00;;;12.00;56.40;;;;;;5072369;28;20430;-60
2024/02/13 12:06:45;;;;;;;2.00;1.00;;;12.00;56.60;;;;;;5072240;28;20835;-61
2024/02/13 12:09:15;;;;;;;1.23;0.80;;;11.90;56.80;;;;;;5072445;28;20400;-60
2024/02/13 12:11:41;;;;;;;1.55;1.00;;;11.70;57.00;;;;;;5072876;28;20847;-60
2024/02/13 12:14:09;;;;;;;2.07;1.10;;;11.50;58.00;;;;;;5071754;28;20212;-60
2024/02/13 12:16:35;;;;;;;3.67;1.00;;;11.30;59.40;;;;;;5071247;28;20477;-60
2024/02/13 12:19:03;;;;;;;1.17;1.07;;;11.10;59.90;;;;;;5072006;28;20460;-60
2024/02/13 12:21:29;;;;;;;1.27;1.17;;;11.00;59.90;;;;;;5072186;28;20431;-60
2024/02/13 12:24:01;;;;;;;1.20;1.00;;;11.00;61.60;;;;;;5072232;28;20689;-60
2024/02/13 12:26:28;;;;;;;2.60;1.10;;;11.10;61.20;;;;;;5072118;28;20545;-59
2024/02/13 12:28:59;;;;;;;0.60;0.60;;;11.20;60.20;;;;;;5072184;28;20404;-60
2024/02/13 12:31:29;;;;;;;1.23;0.90;;;10.90;50.80;;;;;;5072200;28;20404;-59
2024/02/13 12:34:04;;;;;;;2.90;0.60;;;10.60;55.60;;;;;;5072168;28;20467;-59
2024/02/13 12:36:31;;;;;;;1.77;0.93;;;10.40;51.80;;;;;;5071887;28;20694;-60
2024/02/13 12:39:25;;;;;;;0.60;0.60;;;10.00;53.00;;;;;;5072131;28;20181;-59
2024/02/13 12:41:51;;;;;;;4.83;0.80;;;9.90;56.10;;;;;;5072145;28;20404;-60
2024/02/13 12:44:19;;;;;;;1.17;0.70;;;9.90;58.20;;;;;;5070295;28;20551;-58
2024/02/13 12:46:45;;;;;;;1.03;0.60;;;10.00;56.20;;;;;;5101147;28;20789;-59
2024/02/13 12:49:16;;;;;;;1.40;0.80;;;10.10;56.50;;;;;;5092286;28;20803;-59
2024/02/13 12:51:44;;;;;;;3.50;0.68;;;9.90;57.50;;;;;;5092216;28;20467;-59
2024/02/13 12:54:10;;;;;;;0.80;0.70;;;9.60;57.10;;;;;;5090262;28;20204;-59
2024/02/13 12:56:41;;;;;;;0.68;0.65;;;9.70;57.30;;;;;;5091832;28;20442;-59